sensor_id;sensor_type;location;lat;lon;timestamp;pressure;altitude;pressure_sealevel;temperature;humidity
80482;BME280;69797;43.864;21.410;2023-08-30T10:25:51;98931.66;;;27.88;70.94
80482;BME280;69797;43.864;21.410;2023-08-30T10:28:21;98934.25;;;27.97;74.29
80482;BME280;69797;43.864;21.410;2023-08-30T10:30:50;98949.47;;;28.12;74.29
80482;BME280;69797;43.864;21.410;2023-08-30T10:36:20;98913.44;;;28.02;56.86
80482;BME280;69797;43.864;21.410;2023-08-30T10:38:52;98932.09;;;28.10;54.60
80482;BME280;69797;43.864;21.410;2023-08-30T10:41:28;98948.13;;;28.06;56.31
80482;BME280;69797;43.864;21.410;2023-08-30T10:43:55;98955.38;;;28.07;56.59
80482;BME280;69797;43.864;21.410;2023-08-30T10:46:32;98948.16;;;27.90;46.39
80482;BME280;69797;43.864;21.410;2023-08-30T10:49:12;98928.91;;;27.92;60.42
80482;BME280;69797;43.864;21.410;2023-08-30T10:51:42;98947.22;;;28.02;64.01
80482;BME280;69797;43.864;21.410;2023-08-30T10:54:15;98934.84;;;28.06;58.39
80482;BME280;69797;43.864;21.410;2023-08-30T10:59:22;98951.06;;;28.32;59.91
80482;BME280;69797;43.864;21.410;2023-08-30T11:01:50;98943.50;;;28.36;63.20
80482;BME280;69797;43.864;21.410;2023-08-30T11:04:20;98944.59;;;28.48;68.24
80482;BME280;69797;43.864;21.410;2023-08-30T11:06:50;98919.53;;;28.42;60.78
80482;BME280;69797;43.864;21.410;2023-08-30T11:09:21;98945.22;;;28.60;67.87
80482;BME280;69797;43.864;21.410;2023-08-30T11:11:49;98923.88;;;28.59;70.29
80482;BME280;69797;43.864;21.410;2023-08-30T11:14:18;98927.78;;;28.74;60.90
80482;BME280;69797;43.864;21.410;2023-08-30T11:16:45;98938.38;;;28.81;63.51
80482;BME280;69797;43.864;21.410;2023-08-30T11:19:12;98933.56;;;28.81;66.98
80482;BME280;69797;43.864;21.410;2023-08-30T11:21:42;98935.31;;;28.89;66.40
80482;BME280;69797;43.864;21.410;2023-08-30T11:24:10;98937.25;;;29.08;65.90
80482;BME280;69797;43.864;21.410;2023-08-30T11:26:37;98910.72;;;29.09;63.95
80482;BME280;69797;43.864;21.410;2023-08-30T11:29:08;98931.06;;;29.22;55.97
80482;BME280;69797;43.864;21.410;2023-08-30T11:31:35;98918.16;;;29.21;63.62
80482;BME280;69797;43.864;21.410;2023-08-30T11:34:03;98927.53;;;29.29;62.32
80482;BME280;69797;43.864;21.410;2023-08-30T11:36:31;98925.75;;;29.44;60.74
80482;BME280;69797;43.864;21.410;2023-08-30T11:39:00;98916.03;;;29.64;64.82
80482;BME280;69797;43.864;21.410;2023-08-30T11:41:27;98891.59;;;29.75;56.18
80482;BME280;69797;43.864;21.410;2023-08-30T11:43:54;98914.19;;;30.05;60.14
80482;BME280;69797;43.864;21.410;2023-08-30T11:46:21;98907.34;;;30.06;61.34
80482;BME280;69797;43.864;21.410;2023-08-30T11:48:50;98892.22;;;29.92;57.26
80482;BME280;69797;43.864;21.410;2023-08-30T11:51:18;98907.25;;;29.99;58.49
80482;BME280;69797;43.864;21.410;2023-08-30T11:53:46;98909.78;;;30.08;59.76
80482;BME280;69797;43.864;21.410;2023-08-30T11:56:13;98911.19;;;30.21;61.61
80482;BME280;69797;43.864;21.410;2023-08-30T11:58:40;98907.19;;;30.26;60.33
80482;BME280;69797;43.864;21.410;2023-08-30T12:01:07;98917.22;;;30.53;59.02
80482;BME280;69797;43.864;21.410;2023-08-30T12:03:34;98915.78;;;30.70;59.58
80482;BME280;69797;43.864;21.410;2023-08-30T12:06:09;98907.88;;;30.87;53.19
80482;BME280;69797;43.864;21.410;2023-08-30T12:08:38;98913.31;;;31.06;58.97
80482;BME280;69797;43.864;21.410;2023-08-30T12:11:05;98888.69;;;31.06;57.29
80482;BME280;69797;43.864;21.410;2023-08-30T12:13:33;98902.97;;;31.24;58.29
80482;BME280;69797;43.864;21.410;2023-08-30T12:16:01;98898.16;;;31.28;57.49
80482;BME280;69797;43.864;21.410;2023-08-30T12:18:32;98864.16;;;31.21;53.13
80482;BME280;69797;43.864;21.410;2023-08-30T12:21:03;98889.38;;;31.44;52.63
80482;BME280;69797;43.864;21.410;2023-08-30T12:23:34;98878.09;;;31.48;57.48
80482;BME280;69797;43.864;21.410;2023-08-30T12:26:06;98889.88;;;31.57;45.99
80482;BME280;69797;43.864;21.410;2023-08-30T12:28:37;98864.34;;;31.46;54.13
80482;BME280;69797;43.864;21.410;2023-08-30T12:31:04;98890.31;;;31.66;50.88
80482;BME280;69797;43.864;21.410;2023-08-30T12:33:33;98887.91;;;31.65;45.34
80482;BME280;69797;43.864;21.410;2023-08-30T12:36:00;98874.44;;;31.44;37.41
80482;BME280;69797;43.864;21.410;2023-08-30T12:38:27;98886.94;;;31.39;53.43
80482;BME280;69797;43.864;21.410;2023-08-30T12:40:57;98877.09;;;31.26;54.13
80482;BME280;69797;43.864;21.410;2023-08-30T12:43:26;98894.22;;;31.40;54.50
80482;BME280;69797;43.864;21.410;2023-08-30T12:45:53;98886.19;;;31.49;53.47
80482;BME280;69797;43.864;21.410;2023-08-30T12:48:20;98884.59;;;31.56;51.14
80482;BME280;69797;43.864;21.410;2023-08-30T12:50:47;98879.34;;;31.54;49.66
80482;BME280;69797;43.864;21.410;2023-08-30T12:53:15;98883.00;;;31.54;50.12
80482;BME280;69797;43.864;21.410;2023-08-30T12:55:43;98883.75;;;31.48;43.59
80482;BME280;69797;43.864;21.410;2023-08-30T12:58:10;98886.81;;;31.28;44.84
80482;BME280;69797;43.864;21.410;2023-08-30T13:00:38;98883.84;;;31.11;46.63
80482;BME280;69797;43.864;21.410;2023-08-30T13:03:05;98895.16;;;31.07;46.51
80482;BME280;69797;43.864;21.410;2023-08-30T13:05:33;98882.56;;;31.01;41.76
80482;BME280;69797;43.864;21.410;2023-08-30T13:08:00;98876.84;;;30.94;44.11
80482;BME280;69797;43.864;21.410;2023-08-30T13:10:27;98873.50;;;30.81;41.38
80482;BME280;69797;43.864;21.410;2023-08-30T13:12:54;98870.97;;;30.72;45.10
80482;BME280;69797;43.864;21.410;2023-08-30T13:15:21;98884.94;;;30.58;44.52
80482;BME280;69797;43.864;21.410;2023-08-30T13:17:48;98870.63;;;30.40;44.57
80482;BME280;69797;43.864;21.410;2023-08-30T13:20:15;98870.53;;;30.29;46.11
80482;BME280;69797;43.864;21.410;2023-08-30T13:22:42;98852.56;;;30.15;42.02
80482;BME280;69797;43.864;21.410;2023-08-30T13:25:09;98864.63;;;30.11;45.14
80482;BME280;69797;43.864;21.410;2023-08-30T13:27:38;98865.25;;;29.98;45.53
80482;BME280;69797;43.864;21.410;2023-08-30T13:30:06;98872.97;;;30.01;44.90
80482;BME280;69797;43.864;21.410;2023-08-30T13:32:33;98871.66;;;29.91;45.42
80482;BME280;69797;43.864;21.410;2023-08-30T13:35:01;98876.09;;;29.92;45.27
80482;BME280;69797;43.864;21.410;2023-08-30T13:37:29;98871.94;;;29.82;44.07
80482;BME280;69797;43.864;21.410;2023-08-30T13:39:56;98885.53;;;29.73;43.71
80482;BME280;69797;43.864;21.410;2023-08-30T13:42:22;98872.38;;;29.58;41.59
80482;BME280;69797;43.864;21.410;2023-08-30T13:44:52;98879.06;;;29.46;39.36
80482;BME280;69797;43.864;21.410;2023-08-30T13:47:19;98864.41;;;29.37;43.49
80482;BME280;69797;43.864;21.410;2023-08-30T13:49:47;98876.78;;;29.55;42.06
80482;BME280;69797;43.864;21.410;2023-08-30T13:52:14;98877.69;;;29.59;43.65
80482;BME280;69797;43.864;21.410;2023-08-30T13:54:40;98869.31;;;29.67;43.51
80482;BME280;69797;43.864;21.410;2023-08-30T13:57:07;98869.78;;;29.72;38.65
80482;BME280;69797;43.864;21.410;2023-08-30T13:59:34;98852.28;;;29.59;42.59
80482;BME280;69797;43.864;21.410;2023-08-30T14:02:03;98875.47;;;29.76;42.27
80482;BME280;69797;43.864;21.410;2023-08-30T14:04:30;98877.97;;;29.81;42.70
80482;BME280;69797;43.864;21.410;2023-08-30T14:06:59;98871.03;;;29.75;40.82
80482;BME280;69797;43.864;21.410;2023-08-30T14:09:26;98881.16;;;29.79;42.60
80482;BME280;69797;43.864;21.410;2023-08-30T14:11:53;98876.63;;;29.71;42.51
80482;BME280;69797;43.864;21.410;2023-08-30T14:14:22;98869.69;;;29.65;39.77
80482;BME280;69797;43.864;21.410;2023-08-30T14:16:49;98867.94;;;29.57;42.21
80482;BME280;69797;43.864;21.410;2023-08-30T14:19:16;98875.28;;;29.61;41.05
80482;BME280;69797;43.864;21.410;2023-08-30T14:21:43;98881.47;;;29.71;41.92
80482;BME280;69797;43.864;21.410;2023-08-30T14:24:10;98880.66;;;29.70;41.43
80482;BME280;69797;43.864;21.410;2023-08-30T14:26:37;98873.75;;;29.68;42.20
80482;BME280;69797;43.864;21.410;2023-08-30T14:29:04;98878.25;;;29.72;40.09
80482;BME280;69797;43.864;21.410;2023-08-30T14:31:30;98872.22;;;29.74;42.24
80482;BME280;69797;43.864;21.410;2023-08-30T14:33:57;98877.47;;;29.75;42.24
80482;BME280;69797;43.864;21.410;2023-08-30T14:36:26;98872.28;;;29.77;40.58
80482;BME280;69797;43.864;21.410;2023-08-30T14:38:52;98861.75;;;29.74;41.82
80482;BME280;69797;43.864;21.410;2023-08-30T14:41:20;98862.91;;;29.70;40.20
80482;BME280;69797;43.864;21.410;2023-08-30T14:43:47;98874.25;;;29.73;39.09
80482;BME280;69797;43.864;21.410;2023-08-30T14:46:13;98865.19;;;29.60;40.95
80482;BME280;69797;43.864;21.410;2023-08-30T14:48:49;98860.50;;;29.45;41.19
80482;BME280;69797;43.864;21.410;2023-08-30T14:51:16;98875.44;;;29.46;41.69
80482;BME280;69797;43.864;21.410;2023-08-30T14:53:42;98870.09;;;29.40;42.23
80482;BME280;69797;43.864;21.410;2023-08-30T14:56:09;98873.25;;;29.35;41.37
80482;BME280;69797;43.864;21.410;2023-08-30T14:58:38;98869.03;;;29.22;41.69
80482;BME280;69797;43.864;21.410;2023-08-30T15:01:05;98862.91;;;29.16;42.06
80482;BME280;69797;43.864;21.410;2023-08-30T15:03:32;98873.69;;;29.11;41.65
80482;BME280;69797;43.864;21.410;2023-08-30T15:05:59;98882.03;;;29.04;41.23
80482;BME280;69797;43.864;21.410;2023-08-30T15:08:26;98873.84;;;28.76;42.17
80482;BME280;69797;43.864;21.410;2023-08-30T15:10:53;98870.22;;;28.52;43.16
80482;BME280;69797;43.864;21.410;2023-08-30T15:13:20;98884.09;;;28.41;43.41
80482;BME280;69797;43.864;21.410;2023-08-30T15:15:47;98880.09;;;28.23;44.25
80482;BME280;69797;43.864;21.410;2023-08-30T15:18:14;98872.31;;;27.97;44.33
80482;BME280;69797;43.864;21.410;2023-08-30T15:20:42;98891.06;;;27.89;44.55
80482;BME280;69797;43.864;21.410;2023-08-30T15:23:12;98901.25;;;27.78;44.82
80482;BME280;69797;43.864;21.410;2023-08-30T15:25:44;98901.38;;;27.66;45.69
80482;BME280;69797;43.864;21.410;2023-08-30T15:28:12;98889.31;;;27.65;45.78
80482;BME280;69797;43.864;21.410;2023-08-30T15:30:46;98900.72;;;27.72;45.80
80482;BME280;69797;43.864;21.410;2023-08-30T15:33:13;98896.66;;;27.70;45.07
80482;BME280;69797;43.864;21.410;2023-08-30T15:36:00;98894.25;;;27.72;44.96
80482;BME280;69797;43.864;21.410;2023-08-30T15:38:27;98884.59;;;27.69;44.43
80482;BME280;69797;43.864;21.410;2023-08-30T15:40:54;98897.66;;;27.78;45.44
80482;BME280;69797;43.864;21.410;2023-08-30T15:43:22;98884.66;;;27.73;43.93
80482;BME280;69797;43.864;21.410;2023-08-30T15:45:49;98909.78;;;27.82;44.90
80482;BME280;69797;43.864;21.410;2023-08-30T15:48:16;98916.22;;;27.82;45.26
80482;BME280;69797;43.864;21.410;2023-08-30T15:50:44;98906.91;;;27.78;43.26
80482;BME280;69797;43.864;21.410;2023-08-30T15:53:11;98915.34;;;27.78;43.84
80482;BME280;69797;43.864;21.410;2023-08-30T15:55:38;98904.81;;;27.75;44.08
80482;BME280;69797;43.864;21.410;2023-08-30T15:58:04;98902.34;;;27.73;44.84
80482;BME280;69797;43.864;21.410;2023-08-30T16:00:31;98904.09;;;27.78;45.15
80482;BME280;69797;43.864;21.410;2023-08-30T16:03:02;98915.72;;;27.77;43.93
80482;BME280;69797;43.864;21.410;2023-08-30T16:05:29;98897.00;;;27.68;43.97
80482;BME280;69797;43.864;21.410;2023-08-30T16:07:56;98890.16;;;27.50;44.70
80482;BME280;69797;43.864;21.410;2023-08-30T16:10:22;98888.00;;;27.43;44.20
80482;BME280;69797;43.864;21.410;2023-08-30T16:12:49;98906.94;;;27.46;44.90
80482;BME280;69797;43.864;21.410;2023-08-30T16:15:16;98896.47;;;27.27;45.12
80482;BME280;69797;43.864;21.410;2023-08-30T16:17:43;98906.34;;;27.21;45.71
80482;BME280;69797;43.864;21.410;2023-08-30T16:20:10;98909.38;;;27.13;46.04
80482;BME280;69797;43.864;21.410;2023-08-30T16:22:37;98906.88;;;26.95;45.92
80482;BME280;69797;43.864;21.410;2023-08-30T16:25:05;98894.81;;;26.79;46.64
80482;BME280;69797;43.864;21.410;2023-08-30T16:27:32;98900.00;;;26.77;47.40
80482;BME280;69797;43.864;21.410;2023-08-30T16:29:59;98906.22;;;26.70;47.83
80482;BME280;69797;43.864;21.410;2023-08-30T16:32:26;98904.97;;;26.68;48.42
80482;BME280;69797;43.864;21.410;2023-08-30T16:34:53;98901.97;;;26.61;48.58
80482;BME280;69797;43.864;21.410;2023-08-30T16:37:20;98907.38;;;26.53;48.93
80482;BME280;69797;43.864;21.410;2023-08-30T16:39:47;98905.44;;;26.42;49.76
80482;BME280;69797;43.864;21.410;2023-08-30T16:42:14;98909.13;;;26.30;49.84
80482;BME280;69797;43.864;21.410;2023-08-30T16:44:41;98903.09;;;26.16;50.08
80482;BME280;69797;43.864;21.410;2023-08-30T16:47:10;98915.50;;;26.15;50.67
80482;BME280;69797;43.864;21.410;2023-08-30T16:49:37;98919.97;;;26.03;50.75
80482;BME280;69797;43.864;21.410;2023-08-30T16:52:04;98910.44;;;25.92;51.72
80482;BME280;69797;43.864;21.410;2023-08-30T16:54:31;98925.91;;;25.86;51.52
80482;BME280;69797;43.864;21.410;2023-08-30T16:56:58;98914.91;;;25.69;51.87
80482;BME280;69797;43.864;21.410;2023-08-30T16:59:25;98919.13;;;25.63;51.33
80482;BME280;69797;43.864;21.410;2023-08-30T17:01:52;98907.94;;;25.50;52.23
80482;BME280;69797;43.864;21.410;2023-08-30T17:04:19;98918.19;;;25.46;52.50
80482;BME280;69797;43.864;21.410;2023-08-30T17:06:46;98931.28;;;25.42;53.05
80482;BME280;69797;43.864;21.410;2023-08-30T17:09:13;98935.41;;;25.32;53.71
80482;BME280;69797;43.864;21.410;2023-08-30T17:11:40;98912.59;;;25.09;54.19
80482;BME280;69797;43.864;21.410;2023-08-30T17:14:10;98918.75;;;25.03;55.30
80482;BME280;69797;43.864;21.410;2023-08-30T17:16:37;98933.81;;;24.98;54.79
80482;BME280;69797;43.864;21.410;2023-08-30T17:19:05;98927.50;;;24.89;54.78
80482;BME280;69797;43.864;21.410;2023-08-30T17:21:32;98939.88;;;24.88;54.41
80482;BME280;69797;43.864;21.410;2023-08-30T17:23:59;98926.63;;;24.64;54.82
80482;BME280;69797;43.864;21.410;2023-08-30T17:26:25;98948.47;;;24.71;54.83
80482;BME280;69797;43.864;21.410;2023-08-30T17:28:53;98919.13;;;24.44;55.82
80482;BME280;69797;43.864;21.410;2023-08-30T17:31:20;98940.13;;;24.50;56.29
80482;BME280;69797;43.864;21.410;2023-08-30T17:33:49;98953.41;;;24.40;57.04
80482;BME280;69797;43.864;21.410;2023-08-30T17:36:16;98949.81;;;24.31;56.83
80482;BME280;69797;43.864;21.410;2023-08-30T17:38:43;98951.34;;;24.29;56.25
80482;BME280;69797;43.864;21.410;2023-08-30T17:41:10;98951.22;;;24.25;55.79
80482;BME280;69797;43.864;21.410;2023-08-30T17:43:37;98958.31;;;24.23;55.87
80482;BME280;69797;43.864;21.410;2023-08-30T17:46:04;98951.16;;;24.13;56.43
80482;BME280;69797;43.864;21.410;2023-08-30T17:48:31;98964.81;;;24.14;56.03
80482;BME280;69797;43.864;21.410;2023-08-30T17:50:59;98959.94;;;24.03;56.53
80482;BME280;69797;43.864;21.410;2023-08-30T17:53:28;98975.25;;;24.05;56.32
80482;BME280;69797;43.864;21.410;2023-08-30T17:55:56;98974.69;;;23.91;57.34
80482;BME280;69797;43.864;21.410;2023-08-30T17:58:27;98992.16;;;23.88;58.17
80482;BME280;69797;43.864;21.410;2023-08-30T18:00:54;98999.78;;;23.79;58.25
80482;BME280;69797;43.864;21.410;2023-08-30T18:03:25;99006.88;;;23.76;57.90
80482;BME280;69797;43.864;21.410;2023-08-30T18:06:02;98982.59;;;23.59;59.13
80482;BME280;69797;43.864;21.410;2023-08-30T18:08:42;98995.59;;;23.55;58.33
80482;BME280;69797;43.864;21.410;2023-08-30T18:11:19;99012.81;;;23.66;58.02
80482;BME280;69797;43.864;21.410;2023-08-30T18:13:48;99016.94;;;23.68;58.05
80482;BME280;69797;43.864;21.410;2023-08-30T18:16:18;99019.41;;;23.70;58.53
80482;BME280;69797;43.864;21.410;2023-08-30T18:18:47;99025.34;;;23.68;58.89
80482;BME280;69797;43.864;21.410;2023-08-30T18:21:13;99022.38;;;23.65;58.39
80482;BME280;69797;43.864;21.410;2023-08-30T18:23:42;99034.69;;;23.73;58.25
80482;BME280;69797;43.864;21.410;2023-08-30T18:26:12;99036.81;;;23.76;58.44
80482;BME280;69797;43.864;21.410;2023-08-30T18:28:39;99034.53;;;23.69;58.41
80482;BME280;69797;43.864;21.410;2023-08-30T18:31:05;99046.84;;;23.77;59.19
80482;BME280;69797;43.864;21.410;2023-08-30T18:33:32;99055.22;;;23.77;59.02
80482;BME280;69797;43.864;21.410;2023-08-30T18:35:59;99066.19;;;23.82;58.94
80482;BME280;69797;43.864;21.410;2023-08-30T18:38:26;99061.78;;;23.81;58.44
80482;BME280;69797;43.864;21.410;2023-08-30T18:40:53;99059.31;;;23.79;58.38
80482;BME280;69797;43.864;21.410;2023-08-30T18:43:40;99073.59;;;23.86;58.00
80482;BME280;69797;43.864;21.410;2023-08-30T18:46:09;99084.44;;;23.88;58.33
80482;BME280;69797;43.864;21.410;2023-08-30T18:48:36;99082.31;;;23.85;57.98
80482;BME280;69797;43.864;21.410;2023-08-30T18:51:03;99095.16;;;23.86;59.46
80482;BME280;69797;43.864;21.410;2023-08-30T18:53:29;99096.97;;;23.82;59.27
80482;BME280;69797;43.864;21.410;2023-08-30T18:55:57;99076.31;;;23.65;59.51
80482;BME280;69797;43.864;21.410;2023-08-30T18:58:23;99101.28;;;23.70;59.02
80482;BME280;69797;43.864;21.410;2023-08-30T19:00:50;99095.44;;;23.55;58.65
80482;BME280;69797;43.864;21.410;2023-08-30T19:03:17;99101.22;;;23.50;58.70
80482;BME280;69797;43.864;21.410;2023-08-30T19:05:44;99106.44;;;23.51;58.69
80482;BME280;69797;43.864;21.410;2023-08-30T19:08:11;99102.84;;;23.42;59.17
80482;BME280;69797;43.864;21.410;2023-08-30T19:10:41;99112.25;;;23.46;58.99
80482;BME280;69797;43.864;21.410;2023-08-30T19:13:11;99117.47;;;23.48;58.84
80482;BME280;69797;43.864;21.410;2023-08-30T19:15:38;99122.72;;;23.49;59.17
80482;BME280;69797;43.864;21.410;2023-08-30T19:18:06;99126.53;;;23.53;59.49
80482;BME280;69797;43.864;21.410;2023-08-30T19:20:33;99116.81;;;23.51;60.14
80482;BME280;69797;43.864;21.410;2023-08-30T19:23:00;99127.13;;;23.59;59.78
80482;BME280;69797;43.864;21.410;2023-08-30T19:25:30;99137.00;;;23.65;58.84
80482;BME280;69797;43.864;21.410;2023-08-30T19:27:57;99138.97;;;23.64;59.23
80482;BME280;69797;43.864;21.410;2023-08-30T19:30:25;99145.88;;;23.67;59.67
80482;BME280;69797;43.864;21.410;2023-08-30T19:32:52;99145.69;;;23.63;58.74
80482;BME280;69797;43.864;21.410;2023-08-30T19:35:19;99156.56;;;23.65;58.93
80482;BME280;69797;43.864;21.410;2023-08-30T19:37:46;99147.22;;;23.61;58.93
80482;BME280;69797;43.864;21.410;2023-08-30T19:40:14;99160.81;;;23.71;59.41
80482;BME280;69797;43.864;21.410;2023-08-30T19:42:41;99166.09;;;23.73;59.59
80482;BME280;69797;43.864;21.410;2023-08-30T19:45:09;99162.50;;;23.72;59.16
80482;BME280;69797;43.864;21.410;2023-08-30T19:47:36;99165.59;;;23.70;59.04
80482;BME280;69797;43.864;21.410;2023-08-30T19:50:03;99150.97;;;23.65;59.68
80482;BME280;69797;43.864;21.410;2023-08-30T19:52:30;99165.75;;;23.74;59.98
80482;BME280;69797;43.864;21.410;2023-08-30T19:54:56;99169.38;;;23.75;60.15
80482;BME280;69797;43.864;21.410;2023-08-30T19:57:23;99157.53;;;23.60;59.85
80482;BME280;69797;43.864;21.410;2023-08-30T19:59:50;99182.03;;;23.81;60.29
80482;BME280;69797;43.864;21.410;2023-08-30T20:02:17;99175.97;;;23.70;58.02
80482;BME280;69797;43.864;21.410;2023-08-30T20:04:44;99170.38;;;23.70;58.80
80482;BME280;69797;43.864;21.410;2023-08-30T20:07:11;99157.75;;;23.55;58.42
80482;BME280;69797;43.864;21.410;2023-08-30T20:09:38;99176.63;;;23.58;57.77
80482;BME280;69797;43.864;21.410;2023-08-30T20:12:05;99177.00;;;23.48;58.78
80482;BME280;69797;43.864;21.410;2023-08-30T20:14:32;99189.34;;;23.47;58.07
80482;BME280;69797;43.864;21.410;2023-08-30T20:16:59;99162.91;;;23.10;58.86
80482;BME280;69797;43.864;21.410;2023-08-30T20:19:26;99199.88;;;23.33;58.74
80482;BME280;69797;43.864;21.410;2023-08-30T20:21:53;99212.69;;;23.34;58.60
80482;BME280;69797;43.864;21.410;2023-08-30T20:24:20;99217.97;;;23.35;58.55
80482;BME280;69797;43.864;21.410;2023-08-30T20:26:48;99222.72;;;23.35;58.51
80482;BME280;69797;43.864;21.410;2023-08-30T20:29:15;99205.97;;;23.26;58.40
80482;BME280;69797;43.864;21.410;2023-08-30T20:31:43;99207.13;;;23.25;58.83
80482;BME280;69797;43.864;21.410;2023-08-30T20:34:10;99194.50;;;23.10;59.20
80482;BME280;69797;43.864;21.410;2023-08-30T20:36:41;99210.06;;;23.20;59.57
80482;BME280;69797;43.864;21.410;2023-08-30T20:39:08;99163.06;;;22.79;58.83
80482;BME280;69797;43.864;21.410;2023-08-30T20:41:38;99199.53;;;22.91;59.04
80482;BME280;69797;43.864;21.410;2023-08-30T20:44:05;99236.72;;;23.00;59.35
80482;BME280;69797;43.864;21.410;2023-08-30T20:46:32;99231.91;;;22.92;59.83
80482;BME280;69797;43.864;21.410;2023-08-30T20:48:59;99208.72;;;22.65;60.00
80482;BME280;69797;43.864;21.410;2023-08-30T20:51:26;99211.97;;;22.59;59.20
80482;BME280;69797;43.864;21.410;2023-08-30T20:53:53;99201.94;;;22.49;60.32
80482;BME280;69797;43.864;21.410;2023-08-30T20:56:27;99225.13;;;22.58;60.62
80482;BME280;69797;43.864;21.410;2023-08-30T20:58:57;99230.69;;;22.58;60.75
80482;BME280;69797;43.864;21.410;2023-08-30T21:01:24;99242.72;;;22.67;61.01
80482;BME280;69797;43.864;21.410;2023-08-30T21:03:58;99249.13;;;22.68;61.15
80482;BME280;69797;43.864;21.410;2023-08-30T21:06:26;99245.16;;;22.69;61.22
80482;BME280;69797;43.864;21.410;2023-08-30T21:08:54;99223.97;;;22.59;61.08
80482;BME280;69797;43.864;21.410;2023-08-30T21:11:23;99231.84;;;22.66;61.77
80482;BME280;69797;43.864;21.410;2023-08-30T21:13:50;99210.97;;;22.46;60.64
80482;BME280;69797;43.864;21.410;2023-08-30T21:16:17;99188.91;;;22.27;60.94
80482;BME280;69797;43.864;21.410;2023-08-30T21:18:44;99211.94;;;22.33;61.53
80482;BME280;69797;43.864;21.410;2023-08-30T21:21:11;99218.84;;;22.35;61.06
80482;BME280;69797;43.864;21.410;2023-08-30T21:23:38;99231.81;;;22.40;61.22
80482;BME280;69797;43.864;21.410;2023-08-30T21:26:05;99229.50;;;22.42;61.60
80482;BME280;69797;43.864;21.410;2023-08-30T21:28:32;99219.13;;;22.34;60.84
80482;BME280;69797;43.864;21.410;2023-08-30T21:30:59;99228.97;;;22.31;61.60
80482;BME280;69797;43.864;21.410;2023-08-30T21:33:26;99252.66;;;22.42;61.77
80482;BME280;69797;43.864;21.410;2023-08-30T21:35:53;99242.28;;;22.34;61.14
80482;BME280;69797;43.864;21.410;2023-08-30T21:38:21;99246.41;;;22.37;61.54
80482;BME280;69797;43.864;21.410;2023-08-30T21:40:48;99268.09;;;22.40;61.27
80482;BME280;69797;43.864;21.410;2023-08-30T21:43:15;99252.25;;;22.26;61.88
80482;BME280;69797;43.864;21.410;2023-08-30T21:45:42;99263.44;;;22.26;61.62
80482;BME280;69797;43.864;21.410;2023-08-30T21:48:10;99269.66;;;22.23;62.31
80482;BME280;69797;43.864;21.410;2023-08-30T21:50:38;99281.06;;;22.13;62.69
80482;BME280;69797;43.864;21.410;2023-08-30T21:53:06;99247.97;;;21.89;62.88
80482;BME280;69797;43.864;21.410;2023-08-30T21:55:33;99266.00;;;21.92;63.06
80482;BME280;69797;43.864;21.410;2023-08-30T21:58:00;99282.06;;;21.86;62.99
80482;BME280;69797;43.864;21.410;2023-08-30T22:00:27;99282.78;;;21.69;64.21
80482;BME280;69797;43.864;21.410;2023-08-30T22:02:55;99277.06;;;21.52;65.03
80482;BME280;69797;43.864;21.410;2023-08-30T22:05:22;99292.16;;;21.51;64.86
80482;BME280;69797;43.864;21.410;2023-08-30T22:07:51;99290.34;;;21.46;64.76
80482;BME280;69797;43.864;21.410;2023-08-30T22:10:18;99293.22;;;21.41;65.12
80482;BME280;69797;43.864;21.410;2023-08-30T22:12:46;99293.91;;;21.24;65.63
80482;BME280;69797;43.864;21.410;2023-08-30T22:15:14;99302.34;;;21.19;66.84
80482;BME280;69797;43.864;21.410;2023-08-30T22:17:44;99303.09;;;21.11;66.83
80482;BME280;69797;43.864;21.410;2023-08-30T22:20:13;99294.97;;;21.01;67.44
80482;BME280;69797;43.864;21.410;2023-08-30T22:22:45;99293.56;;;20.90;68.15
80482;BME280;69797;43.864;21.410;2023-08-30T22:25:13;99303.34;;;20.87;69.21
80482;BME280;69797;43.864;21.410;2023-08-30T22:27:41;99296.16;;;20.72;69.30
80482;BME280;69797;43.864;21.410;2023-08-30T22:30:10;99307.00;;;20.74;70.26
80482;BME280;69797;43.864;21.410;2023-08-30T22:32:38;99319.03;;;20.69;69.54
80482;BME280;69797;43.864;21.410;2023-08-30T22:35:06;99308.22;;;20.54;70.17
80482;BME280;69797;43.864;21.410;2023-08-30T22:37:34;99318.59;;;20.48;71.47
80482;BME280;69797;43.864;21.410;2023-08-30T22:40:02;99297.88;;;20.27;71.35
80482;BME280;69797;43.864;21.410;2023-08-30T22:42:33;99313.84;;;20.21;73.19
80482;BME280;69797;43.864;21.410;2023-08-30T22:45:01;99318.47;;;20.12;72.85
80482;BME280;69797;43.864;21.410;2023-08-30T22:47:29;99321.97;;;20.04;73.28
80482;BME280;69797;43.864;21.410;2023-08-30T22:49:56;99329.16;;;20.05;73.19
80482;BME280;69797;43.864;21.410;2023-08-30T22:52:23;99325.13;;;19.97;73.00
80482;BME280;69797;43.864;21.410;2023-08-30T22:54:50;99315.53;;;19.89;73.77
80482;BME280;69797;43.864;21.410;2023-08-30T22:57:17;99327.81;;;19.88;75.75
80482;BME280;69797;43.864;21.410;2023-08-30T22:59:44;99309.94;;;19.76;74.52
80482;BME280;69797;43.864;21.410;2023-08-30T23:02:11;99338.44;;;20.00;73.82
80482;BME280;69797;43.864;21.410;2023-08-30T23:04:38;99334.94;;;20.08;73.69
80482;BME280;69797;43.864;21.410;2023-08-30T23:07:05;99351.66;;;20.22;74.79
80482;BME280;69797;43.864;21.410;2023-08-30T23:09:32;99359.50;;;20.20;75.04
80482;BME280;69797;43.864;21.410;2023-08-30T23:11:59;99358.53;;;20.11;75.95
80482;BME280;69797;43.864;21.410;2023-08-30T23:14:26;99376.56;;;20.13;75.40
80482;BME280;69797;43.864;21.410;2023-08-30T23:16:52;99372.75;;;20.09;75.87
80482;BME280;69797;43.864;21.410;2023-08-30T23:19:21;99368.00;;;20.10;75.74
80482;BME280;69797;43.864;21.410;2023-08-30T23:21:48;99362.22;;;20.06;75.51
80482;BME280;69797;43.864;21.410;2023-08-30T23:24:16;99369.97;;;20.09;75.27